Tequesta, FL (33469)

12:58 PM EDT on September 03, 2015 (GMT -0400)
Pennock Ln. | | Change Station
CLOSE
Current Station
Personal Weather Station
Location: Jupiter, FL
Elevation: 20 ft
Nearby Weather Stations

Elev 20 ft 26.94 °N, 80.11 °W | Updated 17 seconds ago

Mostly Cloudy
Mostly Cloudy
93.4 °F
Feels Like 110 °F
N
2.0
Wind Variable Wind from NNE
Gusts 3.5 mph

Today
High -- | Low -- °F
--% Chance of Precip.
Yesterday
High -- | Low -- °F
Precip. -- in
7:00 AM 7:38 PM
Waning Gibbous, 68% visible
Pressure 29.98 in
Visibility 7.0 miles
Clouds Scattered Clouds 2800 ft
Mostly Cloudy 5000 ft
Heat Index 110 °F
Dew Point 78 °F
Humidity 62%
Rainfall 0.00 in
Snow Depth Not available.
UV 8.2 out of 12
Pollen 4.70 out of 12
Air Quality Not available.
Flu Activity Not available.
METAR KSUA 031647Z 00000KT 7SM VCSH SCT028 BKN050 31/22 A2998
Pressure 29.98 in
Visibility 7.0 miles
Clouds Scattered Clouds 2800 ft
Mostly Cloudy 5000 ft
Heat Index 110 °F
Dew Point 78 °F
Humidity 62%
Rainfall 0.00 in
Snow Depth Not available.
UV 8.2 out of 12
Pollen 4.70 out of 12
Air Quality Not available.
Flu Activity Not available.
METAR KSUA 031647Z 00000KT 7SM VCSH SCT028 BKN050 31/22 A2998

10-Day Weather Forecast

×

Almanac

Astronomy

Sep. 03, 2015 Rise Set
Actual Time
Civil Twilight
Nautical Twilight
Astronomical Twilight
Moon
Length of Visible Light
Length of Day
Tomorrow will be .
, % of the Moon is Illuminated

Today's Extremes

State Highs State Lows

Community

WunderPhotos

Upload Photos

1,851,988 photos uploaded!

WunderBlogs® & News

Nearby

Air Quality

  Air Quality AQ Index Pollutant
Not available.

Snow Depth

Station Depth Elevation

Earthquake Activity

City Distance Mag. Time & Date
Minimum magnitude displayed is 2.5.

Coastal Water Temperatures

Place Temperature

Stations

Nearby Weather Stations

Station Location Temp. Windchill Dew Point Humidity Wind Precip. Elev Updated Type